createdAt,value
2019-05-17T00:01:41.644Z,95186.59
2019-05-17T00:04:11.960Z,95245.63
2019-05-17T00:06:42.225Z,95262.11
2019-05-17T00:09:12.890Z,95226.20
2019-05-17T00:11:43.661Z,95157.20
2019-05-17T00:14:13.948Z,95109.18
2019-05-17T00:16:46.799Z,95143.56
2019-05-17T00:19:18.726Z,95121.52
2019-05-17T00:21:49.005Z,95068.91
2019-05-17T00:24:19.350Z,95101.31
2019-05-17T00:26:49.705Z,95069.22
2019-05-17T00:29:20.340Z,95029.45
2019-05-17T00:31:50.999Z,95063.16
2019-05-17T00:34:27.078Z,95055.69
2019-05-17T00:36:57.535Z,95011.55
2019-05-17T00:39:28.641Z,94991.36
2019-05-17T00:42:00.819Z,94972.80
2019-05-17T00:44:31.086Z,94924.90
2019-05-17T00:47:01.448Z,94925.91
2019-05-17T00:49:31.838Z,94919.52
2019-05-17T00:52:02.442Z,94990.36
2019-05-17T00:54:33.051Z,95005.69
2019-05-17T00:57:10.425Z,94976.34
2019-05-17T00:59:41.837Z,94984.31
2019-05-17T01:02:17.378Z,94941.23
2019-05-17T01:04:48.596Z,94946.08
2019-05-17T01:07:18.878Z,94909.93
2019-05-17T01:09:49.424Z,94866.36
2019-05-17T01:12:20.182Z,94818.80
2019-05-17T01:14:50.473Z,94788.22
2019-05-17T01:17:22.001Z,94772.61
2019-05-17T01:19:54.130Z,94743.99
2019-05-17T01:22:26.294Z,94760.92
2019-05-17T01:24:56.986Z,94824.84
2019-05-17T01:27:27.298Z,94771.30
2019-05-17T01:30:02.807Z,94731.61
2019-05-17T01:32:33.105Z,94700.05
2019-05-17T01:35:03.540Z,94674.06
2019-05-17T01:37:36.988Z,94655.84
2019-05-17T01:40:07.888Z,94659.77
2019-05-17T01:42:38.171Z,94699.75
2019-05-17T01:45:09.649Z,94762.03
2019-05-17T01:47:39.975Z,94793.27
2019-05-17T01:50:11.146Z,94779.45
2019-05-17T01:52:41.448Z,94742.69
2019-05-17T01:55:13.961Z,94790.65
2019-05-17T01:57:47.398Z,94774.00
2019-05-17T02:00:17.819Z,94704.28
2019-05-17T02:02:49.923Z,94687.56
2019-05-17T02:05:24.245Z,94682.83
2019-05-17T02:07:56.826Z,94751.14
2019-05-17T02:10:27.137Z,94730.19
2019-05-17T02:12:57.552Z,94693.59
2019-05-17T02:15:27.797Z,94684.64
2019-05-17T02:17:58.122Z,94680.91
2019-05-17T02:20:28.517Z,94671.45
2019-05-17T02:22:58.939Z,94734.84
2019-05-17T02:25:29.200Z,94769.88
2019-05-17T02:28:01.557Z,94751.84
2019-05-17T02:30:33.781Z,94700.55
2019-05-17T02:33:04.570Z,94731.61
2019-05-17T02:35:36.163Z,94786.80
2019-05-17T02:38:06.427Z,94795.69
2019-05-17T02:40:36.701Z,94763.84
2019-05-17T02:43:08.657Z,94743.69
2019-05-17T02:45:43.286Z,94705.89
2019-05-17T02:48:13.355Z,94706.90
2019-05-17T02:50:48.184Z,94711.13
2019-05-17T02:53:16.653Z,94700.75
2019-05-17T02:55:46.944Z,94698.74
2019-05-17T02:58:17.268Z,94726.46
2019-05-17T03:00:47.894Z,94754.77
2019-05-17T03:03:19.605Z,94778.53
2019-05-17T03:05:53.611Z,94788.92
2019-05-17T03:08:23.667Z,94796.38
2019-05-17T03:10:54.170Z,94809.88
2019-05-17T03:13:25.020Z,94842.16
2019-05-17T03:15:55.358Z,94875.83
2019-05-17T03:18:25.681Z,94894.88
2019-05-17T03:20:56.854Z,94914.25
2019-05-17T03:23:27.708Z,94928.88
2019-05-17T03:25:57.952Z,94951.89
2019-05-17T03:28:28.848Z,94968.95
2019-05-17T03:30:59.149Z,94999.91
2019-05-17T03:33:35.876Z,95031.19
2019-05-17T03:36:06.221Z,95057.27
2019-05-17T03:38:36.911Z,95090.98
2019-05-17T03:41:18.744Z,95154.73
2019-05-17T03:43:41.282Z,95198.27
2019-05-17T03:46:13.824Z,95241.12
2019-05-17T03:48:43.771Z,95305.93
2019-05-17T03:51:14.145Z,95373.70
2019-05-17T03:53:45.267Z,95441.28
2019-05-17T03:56:16.119Z,95530.66
2019-05-17T03:58:46.428Z,95595.09
2019-05-17T04:01:16.720Z,95662.26
2019-05-17T04:03:47.855Z,95731.62
2019-05-17T04:06:18.087Z,95812.84
2019-05-17T04:08:48.369Z,95891.28
2019-05-17T04:11:27.834Z,95976.63
2019-05-17T04:13:53.731Z,96055.33
2019-05-17T04:16:25.571Z,96141.10
2019-05-17T04:18:56.145Z,96233.01
2019-05-17T04:21:26.909Z,96326.10
2019-05-17T04:23:57.188Z,96444.39
2019-05-17T04:26:27.448Z,96554.09
2019-05-17T04:28:57.737Z,96661.03
2019-05-17T04:31:30.744Z,96761.11
2019-05-17T04:34:03.060Z,96904.27
2019-05-17T04:36:33.711Z,97018.69
2019-05-17T04:39:07.091Z,97148.55
2019-05-17T04:41:45.309Z,97262.64
2019-05-17T04:44:12.848Z,97360.78
2019-05-17T04:46:43.477Z,97525.68
2019-05-17T04:49:16.821Z,97643.17
2019-05-17T04:51:47.312Z,97776.50
2019-05-17T04:54:22.526Z,97893.84
2019-05-17T04:56:53.240Z,97958.69
2019-05-17T04:59:24.408Z,98018.56
2019-05-17T05:01:55.047Z,98112.86
2019-05-17T05:04:27.670Z,98247.04
2019-05-17T05:06:58.532Z,98316.18
2019-05-17T05:09:32.668Z,98388.67
2019-05-17T05:12:06.179Z,98452.02
2019-05-17T05:14:36.133Z,98562.00
2019-05-17T05:17:06.588Z,98644.59
2019-05-17T05:19:37.269Z,98752.56
2019-05-17T05:22:07.595Z,98813.54
2019-05-17T05:24:37.955Z,98858.56
2019-05-17T05:27:08.556Z,98995.66
2019-05-17T05:29:41.545Z,99049.55
2019-05-17T05:32:13.145Z,99157.25
2019-05-17T05:34:46.323Z,99238.78
2019-05-17T05:37:16.928Z,99331.39
2019-05-17T05:39:47.556Z,99433.24
2019-05-17T05:42:17.856Z,99475.88
2019-05-17T05:44:48.171Z,99577.82
2019-05-17T05:47:18.469Z,99699.56
2019-05-17T05:49:48.869Z,99727.03
2019-05-17T05:52:22.005Z,99821.42
2019-05-17T05:54:52.356Z,100051.58
2019-05-17T05:57:22.689Z,100503.56
2019-05-17T05:59:53.014Z,100890.05
2019-05-17T06:02:23.304Z,101145.55
2019-05-17T06:04:53.640Z,101342.92
2019-05-17T06:07:23.997Z,101513.31
2019-05-17T06:09:54.303Z,101687.47
2019-05-17T06:12:28.111Z,101933.58
2019-05-17T06:14:57.897Z,102095.77
2019-05-17T06:17:28.209Z,102168.84
2019-05-17T06:19:59.319Z,102417.91
2019-05-17T06:22:31.850Z,102654.28
2019-05-17T06:25:03.864Z,102752.17
2019-05-17T06:27:34.271Z,103170.68
2019-05-17T06:30:08.327Z,103105.40
2019-05-17T06:32:38.702Z,102856.52
2019-05-17T06:35:09.428Z,103186.23
2019-05-17T06:37:41.955Z,103130.91
2019-05-17T06:42:45.638Z,103276.41
2019-05-17T06:45:16.575Z,103553.98
2019-05-17T06:47:47.490Z,103865.89
2019-05-17T06:50:18.322Z,103856.24
2019-05-17T06:52:53.259Z,103869.72
2019-05-17T06:55:24.298Z,104089.66
2019-05-17T06:57:54.742Z,104130.80
2019-05-17T07:00:25.153Z,104057.70
2019-05-17T07:02:55.490Z,104035.17
2019-05-17T07:05:29.429Z,103691.50
2019-05-17T07:08:00.276Z,103877.02
2019-05-17T07:10:31.144Z,103715.47
2019-05-17T07:13:02.121Z,103707.06
2019-05-17T07:15:43.802Z,103869.44
2019-05-17T07:18:05.909Z,104124.44
2019-05-17T07:20:36.475Z,104273.44
2019-05-17T07:23:06.802Z,104022.42
2019-05-17T07:25:39.441Z,104175.25
2019-05-17T07:28:10.754Z,104187.79
2019-05-17T07:30:41.288Z,104448.67
2019-05-17T07:33:11.759Z,104826.05
2019-05-17T07:35:42.107Z,104601.61
2019-05-17T07:38:15.455Z,104206.24
2019-05-17T07:40:49.961Z,103709.66
2019-05-17T07:43:20.776Z,103848.63
2019-05-17T07:45:54.239Z,104027.86
2019-05-17T07:48:24.668Z,104021.44
2019-05-17T07:50:54.964Z,104262.28
2019-05-17T07:53:25.276Z,103962.25
2019-05-17T07:55:55.579Z,103999.62
2019-05-17T07:58:30.020Z,103813.39
2019-05-17T08:01:02.194Z,103279.88
2019-05-17T08:03:34.156Z,103243.72
2019-05-17T08:06:04.911Z,102962.42
2019-05-17T08:08:35.782Z,103161.73
2019-05-17T08:11:06.112Z,103296.64
2019-05-17T08:13:39.680Z,103438.52
2019-05-17T08:16:10.358Z,103250.37
2019-05-17T08:18:40.772Z,103670.37
2019-05-17T08:21:11.344Z,103608.57
2019-05-17T08:23:44.344Z,103985.92
2019-05-17T08:26:14.651Z,104354.65
2019-05-17T08:28:44.978Z,104413.09
2019-05-17T08:31:17.266Z,104469.32
2019-05-17T08:33:49.678Z,104551.99
2019-05-17T08:36:20.118Z,104699.41
2019-05-17T08:38:50.927Z,104906.55
2019-05-17T08:41:21.251Z,104999.24
2019-05-17T08:43:51.670Z,104421.91
2019-05-17T08:46:24.659Z,104552.38
2019-05-17T08:48:55.088Z,104507.58
2019-05-17T08:51:27.637Z,104651.10
2019-05-17T08:54:00.034Z,104563.92
2019-05-17T08:56:31.921Z,104798.52
2019-05-17T08:59:02.411Z,104732.41
2019-05-17T09:01:38.235Z,104226.00
2019-05-17T09:04:09.197Z,104552.63
2019-05-17T09:06:39.827Z,104988.12
2019-05-17T09:09:10.572Z,104920.74
2019-05-17T09:11:40.876Z,104625.03
2019-05-17T09:14:11.299Z,104412.24
2019-05-17T09:16:42.055Z,104522.74
2019-05-17T09:19:12.493Z,104855.50
2019-05-17T09:21:42.882Z,105115.10
2019-05-17T09:24:15.294Z,105194.45
2019-05-17T09:26:49.180Z,104799.91
2019-05-17T09:29:20.079Z,105172.68
2019-05-17T09:31:50.573Z,105178.14
2019-05-17T09:34:20.946Z,105492.66
2019-05-17T09:36:54.628Z,105569.95
2019-05-17T09:39:24.752Z,105399.35
2019-05-17T09:41:55.068Z,105329.70
2019-05-17T09:44:25.392Z,104875.29
2019-05-17T09:46:55.810Z,105514.93
2019-05-17T09:49:26.222Z,105106.18
2019-05-17T09:51:57.243Z,104556.07
2019-05-17T09:54:41.691Z,104556.07
2019-05-17T09:57:00.450Z,104348.05
2019-05-17T09:59:30.997Z,104875.20
2019-05-17T10:02:03.054Z,105290.52
2019-05-17T10:04:33.398Z,105113.05
2019-05-17T10:07:10.191Z,105143.73
2019-05-17T10:09:42.101Z,105473.47
2019-05-17T10:12:14.552Z,105432.16
2019-05-17T10:14:44.904Z,105598.38
2019-05-17T10:17:16.073Z,105049.08
2019-05-17T10:19:46.532Z,105049.08
2019-05-17T10:22:19.851Z,105294.16
2019-05-17T10:24:49.805Z,105588.56
2019-05-17T10:27:25.628Z,105275.73
2019-05-17T10:29:55.973Z,105642.91
2019-05-17T10:32:26.274Z,105361.27
2019-05-17T10:34:56.596Z,105402.53
2019-05-17T10:37:30.197Z,105364.77
2019-05-17T10:40:00.018Z,105744.16
2019-05-17T10:42:30.729Z,105717.18
2019-05-17T10:45:01.135Z,105824.22
2019-05-17T10:47:31.761Z,105769.76
2019-05-17T10:50:02.793Z,105508.64
2019-05-17T10:52:33.078Z,105691.73
2019-05-17T10:55:03.430Z,105683.10
2019-05-17T10:57:38.359Z,105817.95
2019-05-17T11:00:10.159Z,105943.11
2019-05-17T11:02:40.689Z,105765.42
2019-05-17T11:05:11.215Z,105977.16
2019-05-17T11:07:41.843Z,105831.33
2019-05-17T11:10:12.592Z,105951.68
2019-05-17T11:12:42.925Z,105810.38
2019-05-17T11:15:14.094Z,106135.67
2019-05-17T11:17:44.386Z,106016.47
2019-05-17T11:20:15.263Z,106252.77
2019-05-17T11:22:45.965Z,106111.24
2019-05-17T11:25:19.243Z,105710.20
2019-05-17T11:27:51.491Z,105954.98
2019-05-17T11:30:21.783Z,105357.97
2019-05-17T11:32:52.099Z,105532.64
2019-05-17T11:35:24.674Z,105959.16
2019-05-17T11:37:54.797Z,105731.86
2019-05-17T11:40:26.460Z,105619.48
2019-05-17T11:42:59.187Z,105640.09
2019-05-17T11:45:32.589Z,105876.44
2019-05-17T11:48:01.963Z,106215.45
2019-05-17T11:50:32.396Z,106000.14
2019-05-17T11:53:03.063Z,105877.20
2019-05-17T11:55:35.727Z,105282.72
2019-05-17T11:58:06.217Z,104760.92
2019-05-17T12:00:38.105Z,104439.15
2019-05-17T12:03:10.311Z,105125.49
2019-05-17T12:05:40.774Z,105082.53
2019-05-17T12:08:11.111Z,105220.83
2019-05-17T12:10:41.593Z,105254.58
2019-05-17T12:13:11.983Z,105183.16
2019-05-17T12:15:51.599Z,105102.47
2019-05-17T12:18:23.422Z,105504.33
2019-05-17T12:20:53.728Z,105374.47
2019-05-17T12:23:24.078Z,105374.47
2019-05-17T12:25:54.421Z,105323.84
2019-05-17T12:28:24.759Z,105412.80
2019-05-17T12:30:57.558Z,105004.23
2019-05-17T12:33:29.999Z,105660.25
2019-05-17T12:36:00.431Z,105177.49
2019-05-17T12:38:30.841Z,105177.49
2019-05-17T12:41:01.514Z,104614.31
2019-05-17T12:43:32.143Z,104324.79
2019-05-17T12:46:02.615Z,104083.02
2019-05-17T12:48:38.917Z,103619.83
2019-05-17T12:51:09.269Z,103708.09
2019-05-17T12:53:39.639Z,103865.45
2019-05-17T12:58:35.367Z,104291.06
2019-05-17T13:01:05.993Z,104134.20
2019-05-17T13:03:37.967Z,104787.28
2019-05-17T13:06:08.513Z,105193.50
2019-05-17T13:08:43.027Z,105188.44
2019-05-17T13:11:13.385Z,104983.75
2019-05-17T13:13:43.966Z,105307.73
2019-05-17T13:16:19.295Z,105443.11
2019-05-17T13:18:49.907Z,105270.84
2019-05-17T13:21:30.585Z,104869.39
2019-05-17T13:24:07.927Z,104593.96
2019-05-17T13:26:38.579Z,104622.44
2019-05-17T13:29:10.014Z,104447.80
2019-05-17T13:31:42.665Z,104488.67
2019-05-17T13:34:13.000Z,104700.87
2019-05-17T13:36:44.704Z,104249.02
2019-05-17T13:39:16.778Z,104486.81
2019-05-17T13:41:47.852Z,104288.70
2019-05-17T13:44:20.763Z,104303.09
2019-05-17T13:46:53.256Z,104462.58
2019-05-17T13:49:23.567Z,104492.40
2019-05-17T13:51:54.240Z,104617.48
2019-05-17T13:54:36.169Z,104784.95
2019-05-17T13:57:07.604Z,104221.09
2019-05-17T13:59:40.508Z,103647.22
2019-05-17T14:02:10.813Z,103172.20
2019-05-17T14:04:41.913Z,102996.33
2019-05-17T14:07:12.759Z,102975.75
2019-05-17T14:09:43.150Z,102757.36
2019-05-17T14:12:13.853Z,102843.72
2019-05-17T14:14:49.108Z,102876.95
2019-05-17T14:17:19.863Z,103295.55
2019-05-17T14:19:51.282Z,103365.14
2019-05-17T14:22:24.005Z,103355.02
2019-05-17T14:24:54.616Z,103495.22
2019-05-17T14:27:25.006Z,103834.73
2019-05-17T14:29:56.754Z,103566.10
2019-05-17T14:32:27.068Z,103383.67
2019-05-17T14:34:57.393Z,103367.26
2019-05-17T14:37:28.082Z,103564.98
2019-05-17T14:39:59.676Z,103543.36
2019-05-17T14:42:32.288Z,103511.01
2019-05-17T14:45:07.271Z,103261.13
2019-05-17T14:47:37.675Z,103686.73
2019-05-17T14:50:08.699Z,103602.19
2019-05-17T14:52:41.329Z,103659.42
2019-05-17T14:55:12.062Z,103498.03
2019-05-17T14:57:43.203Z,103097.80
2019-05-17T15:00:14.629Z,102951.19
2019-05-17T15:02:45.875Z,103028.05
2019-05-17T15:05:16.388Z,102771.08
2019-05-17T15:07:47.119Z,102532.84
2019-05-17T15:10:18.811Z,102372.07
2019-05-17T15:12:49.110Z,102335.50
2019-05-17T15:15:28.000Z,102337.58
2019-05-17T15:17:55.389Z,102465.52
2019-05-17T15:20:25.767Z,102468.94
2019-05-17T15:22:56.457Z,102202.57
2019-05-17T15:25:26.736Z,102483.92
2019-05-17T15:27:57.368Z,102622.56
2019-05-17T15:30:29.864Z,102454.32
2019-05-17T15:33:03.228Z,102434.28
2019-05-17T15:35:37.750Z,102539.49
2019-05-17T15:38:11.330Z,102469.66
2019-05-17T15:40:42.095Z,102487.70
2019-05-17T15:43:12.412Z,102379.86
2019-05-17T15:45:42.868Z,102267.57
2019-05-17T15:48:13.198Z,102389.44
2019-05-17T15:50:45.044Z,102281.57
2019-05-17T15:53:15.423Z,102409.69
2019-05-17T15:55:45.821Z,102348.92
2019-05-17T15:58:17.377Z,102089.48
2019-05-17T16:00:52.214Z,101880.56
2019-05-17T16:03:22.612Z,102063.72
2019-05-17T16:05:55.691Z,102063.72
2019-05-17T16:08:29.574Z,102063.00
2019-05-17T16:11:01.213Z,101884.83
2019-05-17T16:13:34.343Z,101820.53
2019-05-17T16:16:05.033Z,101735.23
2019-05-17T16:18:36.776Z,101653.03
2019-05-17T16:21:09.189Z,101562.70
2019-05-17T16:23:40.942Z,101510.38
2019-05-17T16:26:11.556Z,101381.91
2019-05-17T16:28:42.676Z,101387.36
2019-05-17T16:31:13.000Z,101192.71
2019-05-17T16:33:43.537Z,101132.70
2019-05-17T16:36:14.380Z,101150.27
2019-05-17T16:38:44.890Z,100976.46
2019-05-17T16:41:15.864Z,100931.41
2019-05-17T16:43:46.324Z,100963.16
2019-05-17T16:46:19.260Z,100954.88
2019-05-17T16:48:49.602Z,100810.25
2019-05-17T16:51:21.316Z,100803.91
2019-05-17T16:53:52.773Z,100758.33
2019-05-17T16:56:23.158Z,100703.38
2019-05-17T16:58:53.441Z,100708.61
2019-05-17T17:01:23.995Z,100676.73
2019-05-17T17:03:54.398Z,100618.12
2019-05-17T17:06:25.382Z,100596.23
2019-05-17T17:08:55.930Z,100524.14
2019-05-17T17:11:28.690Z,100538.96
2019-05-17T17:13:58.979Z,100472.64
2019-05-17T17:16:29.386Z,100420.44
2019-05-17T17:18:59.747Z,100391.48
2019-05-17T17:21:30.105Z,100407.29
2019-05-17T17:24:00.914Z,100412.04
2019-05-17T17:26:33.633Z,100360.38
2019-05-17T17:29:04.014Z,100315.12
2019-05-17T17:31:34.363Z,100293.27
2019-05-17T17:34:05.146Z,100236.28
2019-05-17T17:36:40.322Z,100231.41
2019-05-17T17:39:10.618Z,100198.28
2019-05-17T17:41:41.403Z,100191.23
2019-05-17T17:44:14.205Z,100165.52
2019-05-17T17:46:44.479Z,100108.05
2019-05-17T17:49:17.375Z,100075.81
2019-05-17T17:51:47.822Z,100077.16
2019-05-17T17:54:18.202Z,100046.95
2019-05-17T17:56:49.175Z,100041.39
2019-05-17T17:59:19.552Z,100000.60
2019-05-17T18:01:50.300Z,99967.98
2019-05-17T18:04:22.087Z,99927.05
2019-05-17T18:06:52.452Z,99898.36
2019-05-17T18:09:24.501Z,99857.75
2019-05-17T18:12:05.134Z,99819.34
2019-05-17T18:14:35.743Z,99786.16
2019-05-17T18:17:06.072Z,99749.25
2019-05-17T18:19:36.947Z,99733.16
2019-05-17T18:22:07.308Z,99699.31
2019-05-17T18:24:37.617Z,99667.13
2019-05-17T18:27:10.408Z,99607.84
2019-05-17T18:29:44.187Z,99574.19
2019-05-17T18:32:21.775Z,99561.13
2019-05-17T18:34:52.460Z,99535.29
2019-05-17T18:37:22.725Z,99533.77
2019-05-17T18:39:53.110Z,99498.97
2019-05-17T18:42:23.431Z,99442.21
2019-05-17T18:44:54.625Z,99412.27
2019-05-17T18:47:27.851Z,99421.64
2019-05-17T18:49:58.519Z,99399.23
2019-05-17T18:52:28.846Z,99361.94
2019-05-17T18:54:59.141Z,99342.04
2019-05-17T18:57:32.348Z,99267.95
2019-05-17T19:00:04.470Z,99261.78
2019-05-17T19:02:35.447Z,99240.22
2019-05-17T19:05:06.242Z,99237.38
2019-05-17T19:07:38.195Z,99160.16
2019-05-17T19:10:09.969Z,99085.50
2019-05-17T19:12:40.282Z,99091.34
2019-05-17T19:15:11.146Z,99028.38
2019-05-17T19:17:43.180Z,99002.48
2019-05-17T19:20:15.195Z,98946.75
2019-05-17T19:22:47.713Z,98905.23
2019-05-17T19:25:22.119Z,98830.50
2019-05-17T19:27:52.484Z,98816.33
2019-05-17T19:30:25.583Z,98814.33
2019-05-17T19:32:55.900Z,98807.00
2019-05-17T19:35:26.876Z,98821.17
2019-05-17T19:37:57.787Z,98809.16
2019-05-17T19:40:28.141Z,98760.47
2019-05-17T19:42:59.403Z,98750.47
2019-05-17T19:45:29.683Z,98737.64
2019-05-17T19:48:00.023Z,98709.98
2019-05-17T19:50:30.796Z,98689.47
2019-05-17T19:53:10.475Z,98632.02
2019-05-17T19:55:40.814Z,98572.73
2019-05-17T19:58:11.449Z,98575.39
2019-05-17T20:00:41.761Z,98527.09
2019-05-17T20:03:12.360Z,98475.52
2019-05-17T20:05:45.154Z,98451.20
2019-05-17T20:08:18.308Z,98369.39
2019-05-17T20:10:53.540Z,98355.06
2019-05-17T20:13:24.041Z,98320.16
2019-05-17T20:15:54.768Z,98277.13
2019-05-17T20:18:25.087Z,98273.63
2019-05-17T20:20:58.919Z,98213.62
2019-05-17T20:23:43.630Z,98157.34
2019-05-17T20:26:13.910Z,98084.92
2019-05-17T20:28:50.442Z,98037.12
2019-05-17T20:31:23.069Z,98009.08
2019-05-17T20:33:54.748Z,97999.13
2019-05-17T20:36:25.103Z,98006.09
2019-05-17T20:38:55.584Z,98024.50
2019-05-17T20:41:25.856Z,98043.78
2019-05-17T20:43:56.471Z,98142.73
2019-05-17T20:46:30.667Z,98164.31
2019-05-17T20:49:02.003Z,98198.19
2019-05-17T20:51:32.561Z,98221.77
2019-05-17T20:54:03.245Z,98219.28
2019-05-17T20:56:36.222Z,98228.75
2019-05-17T20:59:08.999Z,98200.34
2019-05-17T21:01:39.386Z,98209.81
2019-05-17T21:04:09.682Z,98190.05
2019-05-17T21:06:40.262Z,98142.73
2019-05-17T21:09:11.011Z,98146.22
2019-05-17T21:11:43.618Z,98105.84
2019-05-17T21:14:14.524Z,98100.03
2019-05-17T21:16:44.808Z,98085.09
2019-05-17T21:19:15.422Z,98134.39
2019-05-17T21:22:00.270Z,98126.44
2019-05-17T21:24:31.311Z,98158.16
2019-05-17T21:27:01.620Z,98178.42
2019-05-17T21:29:31.979Z,98184.91
2019-05-17T21:32:02.571Z,98232.06
2019-05-17T21:34:32.931Z,98241.06
2019-05-17T21:37:03.194Z,98244.69
2019-05-17T21:39:33.532Z,98244.69
2019-05-17T21:42:04.760Z,98188.89
2019-05-17T21:44:35.099Z,98208.48
2019-05-17T21:47:06.675Z,98198.19
2019-05-17T21:49:36.937Z,98182.74
2019-05-17T21:52:07.285Z,98172.62
2019-05-17T21:54:40.992Z,98128.41
2019-05-17T21:57:11.308Z,98091.24
2019-05-17T21:59:41.905Z,98083.11
2019-05-17T22:02:12.238Z,98088.59
2019-05-17T22:04:42.573Z,98109.49
2019-05-17T22:07:13.015Z,98088.25
2019-05-17T22:09:45.156Z,98094.56
2019-05-17T22:12:15.369Z,98130.75
2019-05-17T22:14:45.741Z,98147.88
2019-05-17T22:17:17.852Z,98170.12
2019-05-17T22:19:48.156Z,98170.78
2019-05-17T22:22:18.468Z,98190.22
2019-05-17T22:24:48.843Z,98199.52
2019-05-17T22:27:19.107Z,98205.66
2019-05-17T22:29:49.445Z,98245.05
2019-05-17T22:32:21.981Z,98213.62
2019-05-17T22:35:00.799Z,98231.91
2019-05-17T22:37:25.847Z,98234.89
2019-05-17T22:39:57.356Z,98230.24
2019-05-17T22:42:29.357Z,98209.16
2019-05-17T22:44:59.727Z,98216.78
2019-05-17T22:47:33.535Z,98216.78
2019-05-17T22:50:04.153Z,98209.81
2019-05-17T22:52:34.833Z,98237.38
2019-05-17T22:55:07.245Z,98241.05
2019-05-17T22:57:37.764Z,98241.37
2019-05-17T23:00:11.667Z,98251.02
2019-05-17T23:02:45.476Z,98235.72
2019-05-17T23:05:15.969Z,98255.83
2019-05-17T23:07:46.576Z,98273.80
2019-05-17T23:10:16.858Z,98243.70
2019-05-17T23:12:47.825Z,98245.86
2019-05-17T23:15:18.112Z,98266.99
2019-05-17T23:17:48.414Z,98287.27
2019-05-17T23:20:18.731Z,98282.61
2019-05-17T23:22:49.637Z,98265.00
2019-05-17T23:25:20.224Z,98246.86
2019-05-17T23:27:51.759Z,98255.00
2019-05-17T23:30:23.236Z,98257.66
2019-05-17T23:32:53.515Z,98285.27
2019-05-17T23:35:23.813Z,98267.30
2019-05-17T23:37:54.135Z,98257.66
2019-05-17T23:40:24.421Z,98270.66
2019-05-17T23:42:56.748Z,98249.52
2019-05-17T23:45:28.269Z,98283.61
2019-05-17T23:47:59.359Z,98279.80
2019-05-17T23:50:29.653Z,98267.30
2019-05-17T23:53:00.002Z,98253.51
2019-05-17T23:55:30.337Z,98232.08
2019-05-17T23:58:00.697Z,98208.00
